Time;durP1;ratioP1;P1;durP2;ratioP2;P2;SDS_P1;SDS_P2;PMS_P1;PMS_P2;Temp;Humidity;BMP_temperature;BMP_pressure;BME280_temperature;BME280_humidity;BME280_pressure;Samples;Min_cycle;Max_cycle;Signal;HPM_P1;HPM_P2
2022/04/04 00:01:39;;;;;;;4.22;2.20;;;21.50;65.20;;;;;;5037145;23;20167;-41
2022/04/04 00:03:59;;;;;;;3.35;2.13;;;21.60;65.30;;;;;;5051714;23;20059;-46
2022/04/04 00:06:20;;;;;;;4.72;2.42;;;21.60;65.20;;;;;;5043271;23;20024;-41
2022/04/04 00:08:41;;;;;;;4.30;2.20;;;21.60;65.20;;;;;;5042500;23;20447;-45
2022/04/04 00:11:02;;;;;;;2.78;1.90;;;21.60;65.10;;;;;;5045623;23;20029;-42
2022/04/04 00:13:22;;;;;;;3.63;1.85;;;21.70;65.10;;;;;;5050435;23;20032;-43
2022/04/04 00:15:43;;;;;;;8.27;2.45;;;21.70;65.20;;;;;;5042210;23;20065;-44
2022/04/04 00:18:08;;;;;;;4.15;2.13;;;21.70;65.10;;;;;;5042953;23;20032;-42
2022/04/04 00:20:29;;;;;;;3.67;2.03;;;21.80;65.10;;;;;;5051394;23;20368;-41
2022/04/04 00:22:50;;;;;;;2.60;1.58;;;21.80;65.10;;;;;;5045751;23;20513;-44
2022/04/04 00:25:11;;;;;;;3.00;1.90;;;21.80;65.00;;;;;;5045140;23;20079;-42
2022/04/04 00:27:32;;;;;;;3.33;2.00;;;21.90;64.90;;;;;;5049508;23;20586;-41
2022/04/04 00:29:53;;;;;;;2.88;1.85;;;21.90;64.90;;;;;;5052229;23;20121;-41
2022/04/04 00:32:13;;;;;;;3.50;2.20;;;21.90;64.90;;;;;;5046929;23;20680;-41
2022/04/04 00:34:34;;;;;;;2.95;1.90;;;22.00;64.90;;;;;;5045721;23;20077;-41
2022/04/04 00:36:55;;;;;;;3.33;2.20;;;22.00;64.80;;;;;;5048878;23;20805;-42
2022/04/04 00:39:19;;;;;;;3.83;1.88;;;22.00;64.70;;;;;;5052492;23;20024;-43
2022/04/04 00:41:40;;;;;;;5.25;2.35;;;22.10;64.70;;;;;;5047941;23;20045;-44
2022/04/04 00:44:00;;;;;;;2.92;2.00;;;22.10;64.70;;;;;;5048052;23;20065;-45
2022/04/04 00:46:21;;;;;;;3.33;1.83;;;22.10;64.70;;;;;;5053702;23;20109;-44
2022/04/04 00:48:42;;;;;;;3.00;1.80;;;22.10;64.70;;;;;;5046153;23;20320;-46
2022/04/04 00:51:03;;;;;;;3.22;1.75;;;22.20;64.60;;;;;;5048495;23;20048;-50
2022/04/04 00:53:25;;;;;;;3.08;2.05;;;22.20;64.60;;;;;;5052812;23;20090;-44
2022/04/04 00:55:46;;;;;;;3.70;2.10;;;22.30;64.50;;;;;;5053230;23;20849;-43
2022/04/04 00:58:08;;;;;;;3.95;1.90;;;22.30;64.50;;;;;;5048153;23;20696;-45
2022/04/04 01:00:29;;;;;;;3.92;2.15;;;22.30;64.30;;;;;;5049464;23;20546;-44
2022/04/04 01:02:50;;;;;;;3.05;1.70;;;22.40;64.40;;;;;;5054387;23;20048;-43
2022/04/04 01:05:11;;;;;;;4.10;1.80;;;22.40;64.50;;;;;;5054219;23;20020;-46
2022/04/04 01:07:32;;;;;;;4.45;2.22;;;22.40;64.30;;;;;;5051157;23;20682;-42
2022/04/04 01:09:53;;;;;;;3.83;2.05;;;22.40;64.20;;;;;;5056953;23;20021;-43
2022/04/04 01:12:14;;;;;;;3.42;1.98;;;22.50;64.30;;;;;;5057602;23;20051;-44
2022/04/04 01:14:37;;;;;;;3.50;2.20;;;22.50;64.30;;;;;;5051081;23;20028;-43
2022/04/04 01:16:58;;;;;;;3.05;1.98;;;22.50;64.20;;;;;;5052442;23;20629;-43
2022/04/04 01:19:18;;;;;;;2.42;1.80;;;22.50;64.10;;;;;;5060139;23;20053;-43
2022/04/04 01:21:38;;;;;;;2.95;1.63;;;22.60;64.20;;;;;;5050700;23;20065;-48
2022/04/04 01:24:01;;;;;;;3.20;1.92;;;22.60;64.00;;;;;;5049798;23;20016;-42
2022/04/04 01:26:22;;;;;;;4.43;2.00;;;22.60;64.00;;;;;;5055625;23;20119;-46
2022/04/04 01:28:43;;;;;;;2.80;1.98;;;22.60;63.70;;;;;;5024073;23;20086;-40
2022/04/04 01:31:05;;;;;;;4.15;2.00;;;22.60;63.40;;;;;;5052325;23;20135;-41
2022/04/04 01:33:26;;;;;;;3.42;1.80;;;22.60;63.10;;;;;;5043222;23;21113;-40
2022/04/04 01:35:47;;;;;;;6.30;1.90;;;22.70;63.20;;;;;;5057943;23;20109;-39
2022/04/04 01:38:08;;;;;;;2.53;1.70;;;22.70;63.20;;;;;;5050741;23;20076;-42
2022/04/04 01:40:29;;;;;;;5.18;2.42;;;22.70;63.10;;;;;;5049262;23;20101;-41
2022/04/04 01:42:53;;;;;;;2.55;1.60;;;22.70;63.20;;;;;;5055994;23;20372;-39
2022/04/04 01:45:14;;;;;;;2.80;2.05;;;22.80;63.30;;;;;;5054048;23;20627;-41
2022/04/04 01:47:34;;;;;;;3.10;2.10;;;22.80;63.20;;;;;;5051985;23;20374;-41
2022/04/04 01:49:55;;;;;;;3.75;1.98;;;22.80;63.10;;;;;;5055923;23;20089;-41
2022/04/04 01:52:16;;;;;;;3.03;1.98;;;22.90;63.10;;;;;;5058572;23;20110;-42
2022/04/04 01:54:37;;;;;;;3.05;1.80;;;22.90;63.10;;;;;;5053038;23;20105;-41
2022/04/04 01:56:58;;;;;;;2.67;2.00;;;22.90;63.10;;;;;;5051554;23;20596;-41
2022/04/04 01:59:19;;;;;;;3.85;1.92;;;22.90;63.00;;;;;;5066172;23;20068;-41
2022/04/04 02:01:40;;;;;;;3.03;1.70;;;22.90;63.00;;;;;;5063605;23;20095;-41
2022/04/04 02:04:02;;;;;;;3.35;1.90;;;23.00;63.20;;;;;;5059307;23;20083;-40
2022/04/04 02:06:24;;;;;;;3.22;1.80;;;23.00;63.10;;;;;;5061613;23;20028;-45
2022/04/04 02:08:45;;;;;;;3.15;2.00;;;23.00;63.00;;;;;;5057827;23;20025;-43
2022/04/04 02:11:07;;;;;;;3.05;1.95;;;23.00;63.00;;;;;;5060631;23;20052;-42
2022/04/04 02:13:28;;;;;;;3.35;1.90;;;23.10;63.00;;;;;;5055325;23;20029;-41
2022/04/04 02:15:50;;;;;;;5.32;1.63;;;23.10;63.00;;;;;;5075167;23;20021;-39
2022/04/04 02:18:11;;;;;;;2.70;1.63;;;23.10;63.00;;;;;;5067144;23;20055;-40
2022/04/04 02:20:33;;;;;;;3.00;1.73;;;23.10;63.00;;;;;;5063956;23;20363;-40
2022/04/04 02:22:53;;;;;;;2.47;1.50;;;23.20;63.00;;;;;;5028037;23;20148;-42
2022/04/04 02:25:14;;;;;;;3.08;1.98;;;23.20;63.00;;;;;;5059907;23;20120;-42
2022/04/04 02:27:35;;;;;;;3.00;1.90;;;23.20;63.00;;;;;;5061266;23;20060;-40
2022/04/04 02:29:57;;;;;;;2.65;1.70;;;23.20;63.00;;;;;;5056210;23;20024;-44
2022/04/04 02:32:19;;;;;;;2.38;1.75;;;23.30;62.90;;;;;;5046358;23;20107;-42
2022/04/04 02:34:45;;;;;;;3.42;2.05;;;23.30;62.90;;;;;;5045032;23;20028;-40
2022/04/04 02:37:06;;;;;;;2.83;1.67;;;23.30;62.70;;;;;;5042060;23;20024;-42
2022/04/04 02:39:27;;;;;;;6.60;1.70;;;23.40;62.60;;;;;;5045989;23;20016;-42
2022/04/04 02:41:47;;;;;;;5.22;1.85;;;23.40;62.60;;;;;;5049145;23;20024;-41
2022/04/04 02:44:08;;;;;;;3.05;1.98;;;23.50;62.60;;;;;;5042078;23;20024;-44
2022/04/04 02:46:29;;;;;;;2.55;1.63;;;23.50;63.20;;;;;;5044327;23;20032;-44
2022/04/04 02:48:49;;;;;;;3.13;1.67;;;23.50;62.50;;;;;;5047722;23;20073;-41
2022/04/04 02:51:10;;;;;;;2.83;1.80;;;23.50;62.50;;;;;;5044172;23;20111;-42
2022/04/04 02:53:31;;;;;;;2.53;1.73;;;23.60;62.50;;;;;;5034849;23;20212;-43
2022/04/04 02:58:31;;;;;;;2.58;1.58;;;23.60;62.40;;;;;;5042392;23;20092;-42
2022/04/04 03:00:52;;;;;;;3.20;1.85;;;23.60;62.40;;;;;;5050996;23;20660;-41
2022/04/04 03:03:14;;;;;;;2.42;1.75;;;23.70;62.50;;;;;;5046762;23;20830;-43
2022/04/04 03:05:34;;;;;;;3.10;1.52;;;23.70;62.20;;;;;;5044998;23;20036;-42
2022/04/04 03:07:55;;;;;;;2.40;1.70;;;23.70;62.10;;;;;;5046937;23;20376;-43
2022/04/04 03:10:16;;;;;;;1.75;1.23;;;23.70;62.10;;;;;;5050928;23;20099;-39
2022/04/04 03:12:48;;;;;;;2.08;1.38;;;23.80;62.10;;;;;;5044331;23;20113;-42
2022/04/04 03:15:15;;;;;;;3.47;1.50;;;23.80;62.00;;;;;;5052006;23;20036;-42
2022/04/04 03:17:38;;;;;;;1.88;1.20;;;23.80;61.70;;;;;;5043291;23;20084;-40
2022/04/04 03:20:00;;;;;;;2.47;1.20;;;23.80;61.50;;;;;;5046307;23;21118;-41
2022/04/04 03:22:21;;;;;;;3.60;1.50;;;23.90;61.50;;;;;;5049137;23;20084;-41
2022/04/04 03:24:41;;;;;;;1.83;1.42;;;23.90;61.40;;;;;;5042942;23;20029;-40
2022/04/04 03:27:04;;;;;;;2.10;1.30;;;23.90;61.20;;;;;;5043387;23;20067;-40
2022/04/04 03:29:24;;;;;;;2.30;1.48;;;24.00;61.20;;;;;;5049153;23;20049;-42
2022/04/04 03:31:45;;;;;;;3.28;1.38;;;24.00;61.40;;;;;;5048627;23;20423;-40
2022/04/04 03:34:06;;;;;;;1.90;1.30;;;24.00;61.40;;;;;;5042441;23;20829;-43
2022/04/04 03:36:26;;;;;;;2.20;1.30;;;24.10;61.50;;;;;;5045431;23;20020;-41
2022/04/04 03:38:47;;;;;;;2.05;1.38;;;24.10;61.50;;;;;;5051321;23;20439;-44
2022/04/04 03:41:09;;;;;;;2.65;1.40;;;24.10;61.40;;;;;;5045477;23;20068;-44
2022/04/04 03:43:30;;;;;;;3.35;1.35;;;24.20;61.50;;;;;;5012950;23;20024;-41
2022/04/04 03:45:51;;;;;;;1.70;1.20;;;24.20;61.50;;;;;;5048260;23;20060;-41
2022/04/04 03:48:11;;;;;;;2.83;1.25;;;24.30;61.50;;;;;;5048385;23;20020;-42
2022/04/04 03:50:32;;;;;;;2.95;1.40;;;24.40;61.50;;;;;;5045110;23;20024;-42
2022/04/04 03:52:55;;;;;;;2.17;1.40;;;24.40;61.40;;;;;;5046086;23;21200;-41
2022/04/04 03:55:16;;;;;;;1.80;1.30;;;24.50;61.40;;;;;;5047611;23;20048;-42
2022/04/04 03:57:37;;;;;;;2.67;1.38;;;24.50;61.30;;;;;;5046832;23;20024;-43
2022/04/04 03:59:59;;;;;;;2.00;1.13;;;24.60;61.20;;;;;;5048724;23;20952;-43
2022/04/04 04:02:20;;;;;;;1.88;1.25;;;24.60;61.10;;;;;;5045194;23;21076;-43
2022/04/04 04:04:43;;;;;;;1.85;1.10;;;24.70;61.10;;;;;;5051903;23;20023;-41
2022/04/04 04:07:04;;;;;;;1.58;1.10;;;24.80;61.20;;;;;;5048884;23;20048;-43
2022/04/04 04:09:25;;;;;;;1.60;1.20;;;24.80;61.00;;;;;;5051887;23;20092;-41
2022/04/04 04:11:48;;;;;;;3.15;1.20;;;24.90;61.00;;;;;;5054992;23;20797;-42
2022/04/04 04:14:08;;;;;;;2.22;1.33;;;24.90;61.00;;;;;;5048002;23;20592;-42
2022/04/04 04:16:29;;;;;;;1.65;1.02;;;25.00;60.90;;;;;;5050416;23;20024;-43
2022/04/04 04:18:50;;;;;;;2.22;1.27;;;25.10;60.80;;;;;;5056804;23;20024;-43
2022/04/04 04:21:12;;;;;;;1.73;1.10;;;25.10;60.70;;;;;;5053869;23;20044;-44
2022/04/04 04:23:34;;;;;;;1.23;1.08;;;25.20;60.60;;;;;;5048293;23;20028;-43
2022/04/04 04:25:55;;;;;;;1.33;1.20;;;25.30;60.80;;;;;;5043758;23;21249;-41
2022/04/04 04:28:16;;;;;;;1.77;1.30;;;25.40;60.50;;;;;;5051651;23;20029;-42
2022/04/04 04:30:37;;;;;;;1.63;1.02;;;25.40;60.50;;;;;;5050129;23;20016;-43
2022/04/04 04:32:59;;;;;;;6.13;1.55;;;25.50;60.50;;;;;;5043752;23;20064;-43
2022/04/04 04:35:22;;;;;;;2.58;1.00;;;25.60;60.50;;;;;;5047867;23;20020;-41
2022/04/04 04:37:43;;;;;;;2.15;1.27;;;25.60;60.30;;;;;;5052968;23;20029;-44
2022/04/04 04:40:05;;;;;;;1.88;1.10;;;25.70;60.40;;;;;;5051897;23;20040;-44
2022/04/04 04:42:26;;;;;;;5.38;1.52;;;25.80;60.20;;;;;;5053467;23;21117;-43
2022/04/04 04:44:48;;;;;;;2.33;1.08;;;25.90;60.10;;;;;;5055576;23;20383;-41
2022/04/04 04:47:09;;;;;;;1.80;1.20;;;25.90;60.10;;;;;;5052868;23;20040;-47
2022/04/04 04:49:31;;;;;;;2.08;1.30;;;26.00;60.00;;;;;;5045104;23;20024;-43
2022/04/04 04:51:53;;;;;;;1.83;1.02;;;26.00;59.70;;;;;;5049952;23;20025;-43
2022/04/04 04:54:13;;;;;;;5.88;1.52;;;26.10;59.80;;;;;;5050550;23;20107;-41
2022/04/04 04:56:35;;;;;;;2.20;1.25;;;26.10;59.80;;;;;;5051900;23;20114;-41
2022/04/04 04:58:56;;;;;;;2.63;1.27;;;26.20;59.70;;;;;;5027007;23;20230;-43
2022/04/04 05:01:17;;;;;;;2.03;1.20;;;26.30;59.70;;;;;;5055338;23;20028;-45
2022/04/04 05:03:38;;;;;;;2.88;1.27;;;26.30;59.60;;;;;;5049865;23;20076;-42
2022/04/04 05:05:59;;;;;;;2.30;0.90;;;26.40;59.60;;;;;;5050278;23;20028;-41
2022/04/04 05:08:20;;;;;;;1.60;1.02;;;26.50;59.50;;;;;;5053916;23;20071;-41
2022/04/04 05:10:41;;;;;;;3.10;1.30;;;26.60;59.60;;;;;;5049601;23;20731;-40
2022/04/04 05:13:02;;;;;;;2.75;1.15;;;26.60;59.40;;;;;;5048332;23;20542;-40
2022/04/04 05:15:23;;;;;;;1.25;0.95;;;26.70;59.40;;;;;;5054507;23;20044;-42
2022/04/04 05:17:44;;;;;;;1.25;1.10;;;26.70;59.40;;;;;;5046633;23;20447;-41
2022/04/04 05:20:06;;;;;;;2.42;0.93;;;26.80;59.40;;;;;;5051169;23;20864;-40
2022/04/04 05:22:26;;;;;;;1.48;1.10;;;26.80;59.30;;;;;;5050553;23;20095;-41
2022/04/04 05:24:47;;;;;;;1.88;1.27;;;26.90;59.30;;;;;;5058146;23;20587;-41
2022/04/04 05:27:09;;;;;;;1.30;1.08;;;26.90;59.30;;;;;;5054075;23;20072;-42
2022/04/04 05:29:30;;;;;;;2.20;1.20;;;26.90;59.10;;;;;;5044826;23;20104;-43
2022/04/04 05:31:51;;;;;;;1.70;1.10;;;27.00;59.10;;;;;;5055412;23;20021;-42
2022/04/04 05:34:12;;;;;;;1.85;1.10;;;27.00;58.90;;;;;;5056577;23;20032;-41
2022/04/04 05:36:35;;;;;;;1.45;0.73;;;27.10;58.90;;;;;;5051253;23;20019;-44
2022/04/04 05:38:56;;;;;;;1.85;0.98;;;27.10;58.80;;;;;;5053756;23;20025;-41
2022/04/04 05:41:18;;;;;;;2.53;1.00;;;27.20;58.80;;;;;;5056065;23;20020;-42
2022/04/04 05:43:39;;;;;;;3.80;1.38;;;27.20;58.70;;;;;;5050647;23;20035;-43
2022/04/04 05:46:00;;;;;;;1.35;0.90;;;27.20;58.50;;;;;;5049256;23;20032;-41
2022/04/04 05:48:21;;;;;;;1.75;1.05;;;27.30;58.60;;;;;;5054705;23;20032;-41
2022/04/04 05:50:42;;;;;;;1.38;0.80;;;27.30;58.50;;;;;;5057380;23;20048;-41
2022/04/04 05:53:02;;;;;;;1.25;0.80;;;27.30;58.40;;;;;;5019880;23;20052;-42
2022/04/04 05:55:23;;;;;;;0.90;0.90;;;27.40;58.40;;;;;;5052659;23;20059;-41
2022/04/04 05:57:45;;;;;;;4.18;1.08;;;27.40;58.30;;;;;;5058488;23;20376;-42
2022/04/04 06:00:13;;;;;;;0.98;0.85;;;27.50;58.20;;;;;;5054874;23;20052;-42
2022/04/04 06:02:39;;;;;;;1.60;1.25;;;27.60;58.20;;;;;;5043082;23;21253;-43
2022/04/04 06:05:00;;;;;;;0.82;0.77;;;27.60;58.10;;;;;;5054515;23;20091;-44
2022/04/04 06:07:21;;;;;;;1.63;0.90;;;27.60;58.00;;;;;;5052011;23;20067;-44
2022/04/04 06:09:42;;;;;;;1.65;0.90;;;27.60;58.00;;;;;;5042496;23;20104;-45
2022/04/04 06:12:03;;;;;;;2.03;0.68;;;27.70;58.00;;;;;;5061271;23;20045;-43
2022/04/04 06:14:24;;;;;;;1.52;0.98;;;27.70;57.90;;;;;;5060813;23;20031;-44
2022/04/04 06:16:45;;;;;;;1.90;1.00;;;27.70;57.80;;;;;;5059214;23;20039;-41
2022/04/04 06:19:05;;;;;;;2.03;0.90;;;27.80;58.10;;;;;;5058309;23;20024;-42
2022/04/04 06:21:26;;;;;;;1.30;0.80;;;27.80;58.30;;;;;;5065759;23;20173;-44
2022/04/04 06:23:47;;;;;;;1.15;0.90;;;27.80;58.00;;;;;;5055358;23;20023;-42
2022/04/04 06:26:08;;;;;;;1.63;0.93;;;27.80;57.80;;;;;;5068762;23;20048;-42
2022/04/04 06:28:31;;;;;;;1.15;0.70;;;27.90;57.90;;;;;;5067814;23;20035;-43
2022/04/04 06:30:52;;;;;;;2.53;1.05;;;27.80;58.10;;;;;;5069174;23;20444;-43
2022/04/04 06:33:13;;;;;;;1.27;0.90;;;27.90;57.80;;;;;;5072104;23;20028;-41
2022/04/04 06:35:33;;;;;;;1.10;0.60;;;27.90;57.60;;;;;;5025422;23;20563;-48
2022/04/04 06:37:54;;;;;;;1.60;1.00;;;27.90;57.80;;;;;;5057507;23;20407;-42
2022/04/04 06:40:15;;;;;;;1.25;0.82;;;27.90;57.70;;;;;;5069785;23;20343;-44
2022/04/04 06:42:41;;;;;;;1.25;0.80;;;27.90;57.70;;;;;;5082546;23;20079;-41
2022/04/04 06:45:04;;;;;;;1.13;0.73;;;27.90;57.90;;;;;;5052074;23;20017;-45
2022/04/04 06:47:26;;;;;;;1.17;0.88;;;27.90;57.90;;;;;;5033112;23;20849;-41
2022/04/04 06:49:47;;;;;;;1.98;0.90;;;27.90;57.90;;;;;;5047851;23;20490;-40
2022/04/04 06:52:07;;;;;;;1.33;0.73;;;28.00;57.70;;;;;;5048563;23;20016;-42
2022/04/04 06:54:28;;;;;;;1.13;0.90;;;28.00;57.70;;;;;;5047752;23;20122;-41
2022/04/04 06:56:49;;;;;;;1.73;1.02;;;28.00;57.60;;;;;;5046647;23;20160;-40
2022/04/04 06:59:10;;;;;;;1.50;0.90;;;28.00;57.70;;;;;;5037800;23;20129;-44
2022/04/04 07:01:31;;;;;;;0.73;0.50;;;28.00;57.90;;;;;;5042464;23;20020;-42
2022/04/04 07:03:52;;;;;;;1.02;0.90;;;28.00;57.80;;;;;;5048206;23;20188;-43
2022/04/04 07:06:13;;;;;;;1.23;0.80;;;28.10;57.90;;;;;;5047210;23;20108;-43
2022/04/04 07:08:34;;;;;;;2.00;1.00;;;28.00;57.80;;;;;;5038551;23;20119;-41
2022/04/04 07:10:56;;;;;;;0.98;0.63;;;28.10;57.90;;;;;;5053312;23;20107;-41
2022/04/04 07:13:17;;;;;;;0.95;0.80;;;28.00;57.70;;;;;;5045997;23;20088;-41
2022/04/04 07:15:39;;;;;;;0.90;0.60;;;28.00;57.80;;;;;;5044848;23;20060;-42
2022/04/04 07:18:00;;;;;;;1.50;0.90;;;28.00;57.90;;;;;;5043261;23;20115;-43
2022/04/04 07:20:22;;;;;;;1.38;0.80;;;28.00;57.80;;;;;;5051785;23;20087;-44
2022/04/04 07:22:44;;;;;;;0.98;0.75;;;28.00;57.90;;;;;;5016890;23;20080;-40
2022/04/04 07:25:09;;;;;;;2.67;0.90;;;28.00;58.10;;;;;;5051144;23;20021;-40
2022/04/04 07:27:30;;;;;;;1.52;0.90;;;28.00;58.10;;;;;;5052142;23;20102;-42
2022/04/04 07:29:51;;;;;;;1.63;0.63;;;28.00;58.10;;;;;;5049641;23;20020;-44
2022/04/04 07:32:12;;;;;;;2.00;0.88;;;28.00;58.10;;;;;;5050932;23;20941;-40
2022/04/04 07:34:33;;;;;;;0.70;0.70;;;27.90;58.00;;;;;;5054524;23;20028;-42
2022/04/04 07:36:54;;;;;;;3.72;0.77;;;27.90;58.20;;;;;;5050858;23;20024;-41
2022/04/04 07:39:14;;;;;;;0.85;0.63;;;27.90;58.00;;;;;;5048773;23;20095;-43
2022/04/04 07:41:35;;;;;;;1.17;0.88;;;27.90;58.10;;;;;;5056457;23;20060;-42
2022/04/04 07:43:56;;;;;;;1.35;0.80;;;27.90;58.20;;;;;;5054403;23;20048;-40
2022/04/04 07:46:17;;;;;;;1.02;0.75;;;27.80;58.20;;;;;;5053979;23;20131;-40
2022/04/04 07:48:40;;;;;;;1.10;0.80;;;27.80;58.20;;;;;;5052554;23;20063;-41
2022/04/04 07:51:01;;;;;;;1.83;0.77;;;27.80;58.40;;;;;;5050063;23;20165;-43
2022/04/04 07:53:22;;;;;;;1.52;0.60;;;27.80;58.50;;;;;;5052362;23;20048;-41
2022/04/04 07:55:43;;;;;;;1.25;0.75;;;27.80;58.50;;;;;;5052044;23;20064;-46
2022/04/04 07:58:05;;;;;;;0.88;0.40;;;27.80;58.70;;;;;;5055261;23;20021;-42
2022/04/04 08:00:26;;;;;;;3.00;1.02;;;27.70;58.50;;;;;;5055385;23;20072;-42
2022/04/04 08:02:46;;;;;;;1.95;0.90;;;27.70;57.00;;;;;;5050364;23;20095;-43
2022/04/04 08:05:08;;;;;;;1.20;0.70;;;27.70;56.50;;;;;;5053595;23;20032;-44
2022/04/04 08:07:28;;;;;;;3.63;1.10;;;27.60;54.80;;;;;;5055005;23;20028;-41
2022/04/04 08:09:49;;;;;;;1.92;0.80;;;27.60;54.70;;;;;;5049307;23;20366;-42
2022/04/04 08:12:10;;;;;;;8.90;1.17;;;27.60;54.60;;;;;;5053213;23;20091;-42
2022/04/04 08:14:31;;;;;;;2.97;1.00;;;27.50;54.90;;;;;;5056555;23;20110;-43
2022/04/04 08:16:53;;;;;;;5.13;0.93;;;27.50;55.60;;;;;;5055880;23;20125;-42
2022/04/04 08:19:13;;;;;;;2.13;1.00;;;27.50;56.00;;;;;;5043103;23;20150;-46
2022/04/04 08:21:34;;;;;;;2.90;1.30;;;27.40;56.40;;;;;;5050970;23;20025;-43
2022/04/04 08:23:55;;;;;;;3.00;1.90;;;27.40;56.90;;;;;;5047315;23;20095;-44
2022/04/04 08:26:16;;;;;;;4.13;2.10;;;27.40;57.30;;;;;;5050255;23;20028;-46
2022/04/04 08:28:37;;;;;;;2.55;1.85;;;27.40;56.80;;;;;;5057544;23;20020;-47
2022/04/04 08:30:58;;;;;;;4.47;2.33;;;27.30;57.30;;;;;;5046976;23;20133;-43
2022/04/04 08:33:19;;;;;;;5.20;3.70;;;27.30;57.10;;;;;;5053098;23;20032;-42
2022/04/04 08:35:40;;;;;;;7.45;3.38;;;27.30;56.60;;;;;;5046317;23;20020;-43
2022/04/04 08:38:01;;;;;;;4.72;3.13;;;27.20;55.70;;;;;;5045419;23;20097;-41
2022/04/04 08:40:22;;;;;;;5.20;2.95;;;27.20;55.80;;;;;;5053418;23;20103;-43
2022/04/04 08:42:43;;;;;;;4.40;2.70;;;27.20;56.00;;;;;;5046178;23;20056;-41
2022/04/04 08:45:05;;;;;;;3.92;2.53;;;27.20;56.40;;;;;;5045642;23;20666;-44
2022/04/04 08:47:29;;;;;;;3.20;2.08;;;27.10;56.60;;;;;;5049528;23;20941;-44
2022/04/04 08:49:54;;;;;;;4.82;2.33;;;27.10;56.80;;;;;;5050212;23;20581;-43
2022/04/04 08:52:16;;;;;;;10.82;2.53;;;27.10;56.90;;;;;;5045586;23;20192;-45
2022/04/04 08:54:37;;;;;;;4.90;2.28;;;27.10;57.20;;;;;;5051405;23;20024;-41
2022/04/04 08:56:58;;;;;;;2.70;1.85;;;27.10;57.30;;;;;;5048760;23;20020;-43
2022/04/04 08:59:19;;;;;;;3.42;2.00;;;27.10;57.60;;;;;;5045557;23;20028;-41
2022/04/04 09:01:40;;;;;;;4.28;1.90;;;27.10;57.80;;;;;;5037757;23;20455;-41
2022/04/04 09:04:03;;;;;;;7.28;1.80;;;27.10;58.10;;;;;;5052228;23;20019;-42
2022/04/04 09:06:28;;;;;;;5.13;1.80;;;27.10;58.20;;;;;;5016829;23;20044;-43
2022/04/04 09:08:51;;;;;;;4.35;1.92;;;27.10;58.20;;;;;;5037119;23;20059;-44
2022/04/04 09:11:13;;;;;;;2.95;1.80;;;27.10;58.30;;;;;;5052043;23;20039;-45
2022/04/04 09:13:34;;;;;;;2.83;1.90;;;27.10;58.40;;;;;;5047061;23;20858;-45
2022/04/04 09:16:06;;;;;;;3.30;2.00;;;27.10;58.60;;;;;;5048892;23;20040;-39
2022/04/04 09:18:40;;;;;;;3.88;1.90;;;27.10;58.60;;;;;;5041073;23;20024;-43
2022/04/04 09:21:01;;;;;;;3.33;1.60;;;27.10;58.70;;;;;;5055744;23;20029;-42
2022/04/04 09:23:21;;;;;;;3.58;1.63;;;27.10;58.70;;;;;;5046943;23;20055;-42
2022/04/04 09:25:42;;;;;;;4.82;1.90;;;27.10;58.80;;;;;;5049529;23;20566;-41
2022/04/04 09:28:19;;;;;;;3.20;1.80;;;27.10;59.00;;;;;;5051934;23;20040;-41
2022/04/04 09:30:40;;;;;;;7.97;2.08;;;27.10;59.00;;;;;;5048039;23;20079;-45
2022/04/04 09:33:00;;;;;;;27.35;3.97;;;27.10;58.80;;;;;;5049750;23;20048;-48
2022/04/04 09:35:21;;;;;;;30.85;4.18;;;27.10;58.80;;;;;;5052861;23;20021;-44
2022/04/04 09:37:50;;;;;;;36.63;4.15;;;27.10;59.00;;;;;;5046854;23;20100;-43
2022/04/04 09:40:15;;;;;;;26.73;3.80;;;27.00;58.60;;;;;;5039966;23;20111;-41
2022/04/04 09:42:36;;;;;;;23.83;4.03;;;27.00;58.60;;;;;;5046430;23;20072;-43
2022/04/04 09:45:24;;;;;;;16.17;3.15;;;27.00;58.50;;;;;;5045397;23;20040;-47
2022/04/04 09:47:52;;;;;;;26.88;3.10;;;27.00;58.60;;;;;;5037829;23;20433;-43
2022/04/04 09:50:39;;;;;;;14.15;2.88;;;27.00;58.90;;;;;;5055270;23;20042;-43
2022/04/04 09:53:00;;;;;;;10.20;2.47;;;27.00;58.90;;;;;;5046522;23;20339;-45
2022/04/04 09:55:36;;;;;;;24.45;2.85;;;27.00;58.90;;;;;;5048763;23;20024;-43
2022/04/04 09:58:00;;;;;;;7.80;2.25;;;27.00;59.00;;;;;;5046298;23;20132;-41
2022/04/04 10:00:21;;;;;;;7.03;2.40;;;27.00;59.10;;;;;;5046843;23;20023;-42
2022/04/04 10:02:42;;;;;;;18.05;2.42;;;27.00;59.10;;;;;;5051471;23;20020;-41
2022/04/04 10:05:02;;;;;;;8.77;2.53;;;26.90;59.20;;;;;;5056836;23;20040;-42
2022/04/04 10:07:24;;;;;;;10.00;2.08;;;27.00;59.50;;;;;;5048550;23;20940;-44
2022/04/04 10:09:45;;;;;;;6.47;2.08;;;27.00;59.60;;;;;;5050142;23;20032;-42
2022/04/04 10:12:07;;;;;;;14.13;2.95;;;26.90;59.60;;;;;;5051968;23;20041;-40
2022/04/04 10:14:29;;;;;;;8.32;2.00;;;27.00;59.70;;;;;;5054591;23;20115;-41
2022/04/04 10:16:53;;;;;;;6.35;1.83;;;26.90;59.70;;;;;;5049585;23;20920;-47
2022/04/04 10:19:16;;;;;;;13.02;2.22;;;26.90;59.60;;;;;;5044614;23;20148;-41
2022/04/04 10:21:37;;;;;;;5.15;1.85;;;26.90;59.40;;;;;;5055252;23;20079;-45
2022/04/04 10:24:06;;;;;;;8.27;2.17;;;26.90;59.50;;;;;;5051639;23;20758;-44
2022/04/04 10:26:32;;;;;;;11.30;2.25;;;26.90;59.50;;;;;;5052767;23;20372;-41
2022/04/04 10:29:12;;;;;;;10.68;2.13;;;26.90;59.60;;;;;;5022096;23;20040;-44
2022/04/04 10:31:51;;;;;;;5.45;1.95;;;26.90;59.70;;;;;;5056289;23;20023;-43
2022/04/04 10:34:15;;;;;;;9.50;2.30;;;26.90;59.70;;;;;;5064800;23;20280;-42
2022/04/04 10:36:36;;;;;;;8.00;2.40;;;26.90;59.60;;;;;;5063595;23;20017;-41
2022/04/04 10:38:58;;;;;;;4.18;1.73;;;26.90;59.80;;;;;;5053991;23;20020;-41
2022/04/04 10:41:27;;;;;;;5.13;2.03;;;26.90;59.70;;;;;;5065715;23;20555;-44
2022/04/04 10:43:50;;;;;;;7.78;1.83;;;26.90;59.80;;;;;;5061870;23;20091;-41
2022/04/04 10:46:14;;;;;;;5.35;1.80;;;26.90;59.90;;;;;;5059785;23;20548;-41
2022/04/04 10:48:39;;;;;;;6.75;2.15;;;26.90;60.00;;;;;;5063128;23;20075;-41
2022/04/04 10:51:19;;;;;;;3.13;1.63;;;26.80;60.00;;;;;;5060230;23;20810;-40
2022/04/04 10:53:53;;;;;;;10.13;2.20;;;26.80;59.90;;;;;;5060423;23;20036;-39
2022/04/04 10:56:20;;;;;;;7.03;2.20;;;26.80;60.10;;;;;;5046837;23;20025;-41
2022/04/04 10:58:40;;;;;;;11.07;1.95;;;26.80;60.00;;;;;;5051375;23;20025;-38
2022/04/04 11:01:20;;;;;;;5.53;1.88;;;26.80;60.00;;;;;;5046578;23;20997;-42
2022/04/04 11:03:56;;;;;;;5.45;2.28;;;26.80;60.00;;;;;;5043088;23;20023;-40
2022/04/04 11:09:06;;;;;;;10.15;2.10;;;26.80;60.00;;;;;;5050990;23;20084;-42
2022/04/04 11:12:14;;;;;;;5.07;2.08;;;26.80;60.10;;;;;;5053884;23;20861;-41
2022/04/04 11:14:44;;;;;;;6.47;1.77;;;26.80;60.10;;;;;;5049899;23;20620;-44
2022/04/04 11:20:21;;;;;;;3.33;1.65;;;26.70;60.10;;;;;;5058530;23;20383;-41
2022/04/04 11:22:51;;;;;;;3.17;1.75;;;26.70;60.10;;;;;;5046493;23;20032;-43
2022/04/04 11:25:17;;;;;;;5.35;2.00;;;26.70;60.10;;;;;;5021529;23;20021;-43
2022/04/04 11:27:40;;;;;;;12.70;1.70;;;26.70;60.30;;;;;;5043000;23;20096;-43
2022/04/04 11:30:06;;;;;;;4.72;2.10;;;26.70;60.20;;;;;;5038181;23;20052;-42
2022/04/04 11:32:33;;;;;;;8.02;1.90;;;26.70;60.50;;;;;;5054379;23;20351;-44
2022/04/04 11:34:57;;;;;;;2.42;1.77;;;26.70;60.60;;;;;;5038977;23;20029;-41
2022/04/04 11:37:21;;;;;;;;;;;26.60;60.70;;;;;;5054049;23;20096;-42
2022/04/04 11:39:44;;;;;;;3.15;1.58;;;26.60;60.70;;;;;;5047220;23;19915;-40
2022/04/04 11:42:08;;;;;;;5.18;2.00;;;26.70;60.90;;;;;;5048490;23;20440;-41
2022/04/04 11:44:32;;;;;;;4.20;2.08;;;26.60;61.00;;;;;;5023557;23;20136;-42
2022/04/04 11:47:09;;;;;;;5.30;2.20;;;26.60;61.00;;;;;;5046663;23;20032;-46
2022/04/04 11:49:34;;;;;;;2.83;1.52;;;26.60;61.10;;;;;;5048690;23;20056;-46
2022/04/04 11:51:55;;;;;;;3.78;1.80;;;26.60;61.00;;;;;;5046391;23;20126;-42
2022/04/04 11:54:17;;;;;;;5.25;1.58;;;26.60;61.00;;;;;;5049760;23;20333;-42
2022/04/04 11:56:44;;;;;;;6.72;2.22;;;26.60;61.10;;;;;;5042739;23;20518;-42
2022/04/04 11:59:06;;;;;;;1.50;1.30;;;26.60;61.10;;;;;;5037453;23;20025;-48
2022/04/04 12:01:36;;;;;;;6.03;1.80;;;26.60;61.00;;;;;;5053560;23;20024;-42
2022/04/04 12:04:00;;;;;;;2.47;1.45;;;26.60;61.00;;;;;;5016287;23;20080;-45
2022/04/04 12:06:21;;;;;;;4.40;2.10;;;26.60;61.00;;;;;;5049642;23;20055;-45
2022/04/04 12:08:45;;;;;;;4.35;2.60;;;26.60;60.80;;;;;;5045158;23;20100;-41
2022/04/04 12:11:06;;;;;;;10.75;2.03;;;26.50;60.80;;;;;;5046569;23;20088;-40
2022/04/04 12:13:27;;;;;;;2.17;1.50;;;26.60;60.90;;;;;;5048337;23;20032;-42
2022/04/04 12:15:51;;;;;;;5.50;1.90;;;26.50;60.80;;;;;;5019109;23;20069;-40
2022/04/04 12:18:19;;;;;;;5.32;1.85;;;26.50;60.80;;;;;;5043488;23;20039;-40
2022/04/04 12:20:42;;;;;;;8.85;2.50;;;26.50;60.90;;;;;;5044626;23;20036;-41
2022/04/04 12:25:47;;;;;;;9.25;2.85;;;26.50;60.40;;;;;;5047880;23;20101;-40
2022/04/04 12:28:08;;;;;;;5.28;2.13;;;26.50;60.20;;;;;;5046323;23;20056;-41
2022/04/04 12:30:38;;;;;;;3.17;1.90;;;26.50;60.20;;;;;;5049592;23;20021;-44
2022/04/04 12:33:13;;;;;;;5.35;2.35;;;26.40;60.20;;;;;;5048923;23;20035;-40